createdAt,value
2022-08-27T00:02:03.198Z,20.80
2022-08-27T00:04:31.321Z,20.80
2022-08-27T00:06:59.823Z,20.70
2022-08-27T00:09:28.713Z,20.70
2022-08-27T00:11:58.471Z,20.70
2022-08-27T00:14:27.955Z,20.70
2022-08-27T00:16:56.848Z,20.70
2022-08-27T00:19:25.229Z,20.70
2022-08-27T00:21:53.286Z,20.70
2022-08-27T00:24:21.205Z,20.70
2022-08-27T00:26:50.415Z,20.70
2022-08-27T00:29:19.764Z,20.70
2022-08-27T00:31:52.970Z,20.70
2022-08-27T00:34:23.917Z,20.70
2022-08-27T00:36:53.559Z,20.70
2022-08-27T00:39:22.007Z,20.70
2022-08-27T00:41:50.198Z,20.70
2022-08-27T00:44:20.335Z,20.70
2022-08-27T00:46:51.964Z,20.70
2022-08-27T00:49:23.967Z,20.70
2022-08-27T00:51:55.065Z,20.70
2022-08-27T00:54:23.535Z,20.70
2022-08-27T00:56:52.162Z,20.70
2022-08-27T00:59:25.628Z,20.70
2022-08-27T01:02:11.169Z,20.70
2022-08-27T01:04:41.100Z,20.70
2022-08-27T01:07:09.884Z,20.70
2022-08-27T01:09:38.592Z,20.70
2022-08-27T01:12:07.121Z,20.70
2022-08-27T01:14:37.145Z,20.70
2022-08-27T01:17:07.223Z,20.60
2022-08-27T01:19:39.235Z,20.70
2022-08-27T01:22:21.982Z,20.70
2022-08-27T01:24:56.043Z,20.70
2022-08-27T01:27:27.786Z,20.70
2022-08-27T01:29:55.926Z,20.70
2022-08-27T01:32:27.377Z,20.70
2022-08-27T01:34:55.509Z,20.70
2022-08-27T01:37:25.400Z,20.80
2022-08-27T01:39:59.151Z,20.70
2022-08-27T01:42:31.301Z,20.80
2022-08-27T01:45:04.775Z,20.80
2022-08-27T01:47:34.575Z,20.80
2022-08-27T01:50:03.040Z,20.80
2022-08-27T01:52:32.386Z,20.80
2022-08-27T01:55:01.735Z,20.80
2022-08-27T01:57:30.953Z,20.80
2022-08-27T01:59:59.040Z,20.80
2022-08-27T02:02:27.312Z,20.80
2022-08-27T02:04:55.561Z,20.80
2022-08-27T02:07:23.484Z,20.80
2022-08-27T02:09:52.087Z,20.80
2022-08-27T02:12:21.339Z,20.80
2022-08-27T02:14:49.605Z,20.80
2022-08-27T02:17:17.939Z,20.90
2022-08-27T02:19:46.250Z,20.90
2022-08-27T02:22:14.183Z,20.90
2022-08-27T02:24:42.179Z,20.80
2022-08-27T02:27:10.325Z,20.80
2022-08-27T02:29:39.754Z,20.80
2022-08-27T02:32:07.884Z,20.80
2022-08-27T02:34:51.871Z,20.80
2022-08-27T02:37:20.029Z,20.80
2022-08-27T02:39:47.968Z,20.80
2022-08-27T02:42:15.913Z,20.80
2022-08-27T02:44:45.458Z,20.80
2022-08-27T02:47:17.152Z,20.80
2022-08-27T02:49:45.474Z,20.80
2022-08-27T02:52:13.610Z,20.80
2022-08-27T02:54:42.177Z,20.80
2022-08-27T02:57:10.102Z,20.80
2022-08-27T02:59:38.264Z,20.80
2022-08-27T03:02:07.632Z,20.80
2022-08-27T03:04:35.635Z,20.80
2022-08-27T03:07:03.840Z,20.80
2022-08-27T03:09:31.965Z,20.70
2022-08-27T03:12:00.135Z,20.70
2022-08-27T03:14:28.129Z,20.70
2022-08-27T03:16:56.383Z,20.70
2022-08-27T03:19:25.455Z,20.70
2022-08-27T03:21:54.703Z,20.70
2022-08-27T03:24:23.012Z,20.60
2022-08-27T03:26:53.941Z,20.60
2022-08-27T03:29:22.215Z,20.60
2022-08-27T03:31:50.173Z,20.60
2022-08-27T03:34:19.656Z,20.60
2022-08-27T03:36:51.750Z,20.50
2022-08-27T03:39:19.696Z,20.50
2022-08-27T03:41:55.478Z,20.50
2022-08-27T03:44:24.405Z,20.50
2022-08-27T03:46:52.864Z,20.50
2022-08-27T03:49:22.824Z,20.50
2022-08-27T03:51:54.092Z,20.50
2022-08-27T03:54:22.283Z,20.50
2022-08-27T03:56:50.390Z,20.50
2022-08-27T03:59:18.466Z,20.50
2022-08-27T04:01:46.622Z,20.50
2022-08-27T04:04:14.696Z,20.50
2022-08-27T04:06:42.720Z,20.50
2022-08-27T04:09:12.089Z,20.50
2022-08-27T04:11:40.153Z,20.50
2022-08-27T04:14:18.199Z,20.50
2022-08-27T04:16:56.098Z,20.50
2022-08-27T04:19:27.652Z,20.50
2022-08-27T04:22:01.157Z,20.50
2022-08-27T04:24:31.811Z,20.50
2022-08-27T04:27:00.233Z,20.50
2022-08-27T04:29:28.413Z,20.50
2022-08-27T04:31:56.745Z,20.50
2022-08-27T04:34:25.083Z,20.60
2022-08-27T04:36:56.057Z,20.60
2022-08-27T04:39:25.319Z,20.60
2022-08-27T04:41:56.034Z,20.60
2022-08-27T04:44:24.818Z,20.60
2022-08-27T04:46:56.780Z,20.70
2022-08-27T04:49:25.356Z,20.60
2022-08-27T04:51:53.969Z,20.60
2022-08-27T04:54:22.506Z,20.60
2022-08-27T04:57:02.727Z,20.60
2022-08-27T04:59:31.163Z,20.70
2022-08-27T05:01:59.420Z,20.70
2022-08-27T05:04:27.397Z,20.70
2022-08-27T05:06:55.589Z,20.70
2022-08-27T05:09:24.606Z,20.70
2022-08-27T05:11:55.642Z,20.70
2022-08-27T05:14:29.881Z,20.70
2022-08-27T05:16:58.887Z,20.70
2022-08-27T05:19:27.756Z,20.70
2022-08-27T05:21:58.146Z,20.70
2022-08-27T05:24:26.307Z,20.70
2022-08-27T05:26:54.324Z,20.70
2022-08-27T05:29:24.200Z,20.70
2022-08-27T05:31:52.088Z,20.70
2022-08-27T05:34:24.634Z,20.70
2022-08-27T05:36:54.490Z,20.80
2022-08-27T05:39:22.353Z,20.70
2022-08-27T05:41:52.271Z,20.70
2022-08-27T05:47:09.991Z,20.70
2022-08-27T05:49:38.016Z,20.60
2022-08-27T05:52:10.499Z,20.60
2022-08-27T05:54:38.890Z,20.60
2022-08-27T05:57:07.163Z,20.60
2022-08-27T05:59:52.737Z,20.60
2022-08-27T06:02:22.100Z,20.60
2022-08-27T06:04:50.241Z,20.50
2022-08-27T06:07:19.135Z,20.50
2022-08-27T06:09:47.015Z,20.50
2022-08-27T06:12:15.236Z,20.50
2022-08-27T06:14:43.116Z,20.50
2022-08-27T06:17:10.992Z,20.50
2022-08-27T06:19:42.272Z,20.50
2022-08-27T06:22:11.027Z,20.50
2022-08-27T06:24:41.080Z,20.50
2022-08-27T06:27:12.072Z,20.40
2022-08-27T06:29:40.946Z,20.40
2022-08-27T06:32:09.930Z,20.40
2022-08-27T06:34:38.746Z,20.40
2022-08-27T06:37:08.651Z,20.40
2022-08-27T06:39:37.829Z,20.40
2022-08-27T06:42:06.347Z,20.40
2022-08-27T06:44:34.853Z,20.40
2022-08-27T06:47:03.768Z,20.40
2022-08-27T06:49:31.795Z,20.40
2022-08-27T06:51:59.686Z,20.30
2022-08-27T06:54:29.032Z,20.30
2022-08-27T06:56:59.902Z,20.30
2022-08-27T06:59:28.296Z,20.30
2022-08-27T07:01:56.288Z,20.20
2022-08-27T07:04:32.453Z,20.20
2022-08-27T07:07:01.341Z,20.20
2022-08-27T07:09:32.430Z,20.20
2022-08-27T07:12:01.344Z,20.20
2022-08-27T07:14:32.805Z,20.20
2022-08-27T07:17:04.024Z,20.20
2022-08-27T07:19:32.204Z,20.20
2022-08-27T07:22:00.151Z,20.20
2022-08-27T07:24:28.017Z,20.20
2022-08-27T07:26:57.544Z,20.30
2022-08-27T07:29:27.473Z,20.30
2022-08-27T07:31:58.314Z,20.30
2022-08-27T07:34:26.211Z,20.40
2022-08-27T07:36:54.135Z,20.40
2022-08-27T07:39:22.068Z,20.50
2022-08-27T07:42:09.642Z,20.50
2022-08-27T07:44:38.924Z,20.60
2022-08-27T07:47:08.938Z,20.70
2022-08-27T07:49:37.594Z,20.70
2022-08-27T07:52:05.792Z,20.80
2022-08-27T07:54:34.271Z,20.80
2022-08-27T07:57:02.416Z,20.90
2022-08-27T07:59:31.330Z,20.90
2022-08-27T08:02:00.635Z,20.90
2022-08-27T08:04:28.813Z,20.90
2022-08-27T08:06:57.109Z,21.00
2022-08-27T08:09:25.220Z,21.00
2022-08-27T08:11:54.432Z,21.00
2022-08-27T08:14:23.199Z,21.00
2022-08-27T08:16:51.285Z,21.10
2022-08-27T08:19:20.623Z,21.20
2022-08-27T08:21:48.876Z,21.20
2022-08-27T08:24:16.761Z,21.30
2022-08-27T08:26:44.616Z,21.30
2022-08-27T08:29:18.175Z,21.40
2022-08-27T08:31:50.234Z,21.40
2022-08-27T08:34:20.601Z,21.50
2022-08-27T08:36:54.653Z,21.60
2022-08-27T08:39:23.512Z,21.60
2022-08-27T08:41:54.677Z,21.70
2022-08-27T08:44:30.953Z,21.70
2022-08-27T08:47:04.372Z,21.80
2022-08-27T08:49:41.810Z,21.80
2022-08-27T08:52:31.167Z,21.90
2022-08-27T08:55:08.819Z,21.90
2022-08-27T08:57:44.002Z,22.10
2022-08-27T09:00:14.097Z,22.20
2022-08-27T09:02:45.563Z,22.30
2022-08-27T09:05:15.268Z,22.40
2022-08-27T09:07:51.429Z,22.40
2022-08-27T09:10:28.018Z,22.40
2022-08-27T09:13:02.331Z,22.40
2022-08-27T09:15:32.692Z,22.50
2022-08-27T09:18:11.080Z,22.60
2022-08-27T09:20:50.837Z,22.60
2022-08-27T09:23:25.086Z,22.60
2022-08-27T09:25:52.977Z,22.60
2022-08-27T09:28:41.992Z,22.60
2022-08-27T09:31:12.755Z,22.60
2022-08-27T09:33:44.386Z,22.70
2022-08-27T09:36:26.393Z,22.80
2022-08-27T09:38:58.363Z,22.90
2022-08-27T09:41:29.299Z,23.10
2022-08-27T09:44:01.825Z,23.40
2022-08-27T09:46:31.205Z,23.70
2022-08-27T09:48:59.162Z,23.90
2022-08-27T09:51:30.616Z,24.10
2022-08-27T09:54:00.876Z,24.20
2022-08-27T09:56:33.024Z,24.40
2022-08-27T09:59:04.871Z,24.50
2022-08-27T10:01:35.194Z,24.40
2022-08-27T10:04:11.770Z,24.40
2022-08-27T10:06:47.456Z,24.50
2022-08-27T10:09:18.605Z,24.50
2022-08-27T10:11:55.459Z,24.60
2022-08-27T10:14:30.472Z,24.60
2022-08-27T10:17:10.523Z,24.60
2022-08-27T10:19:53.817Z,24.60
2022-08-27T10:22:35.304Z,24.60
2022-08-27T10:25:16.652Z,24.50
2022-08-27T10:27:52.961Z,24.40
2022-08-27T10:30:25.834Z,24.30
2022-08-27T10:33:05.264Z,24.30
2022-08-27T10:35:47.854Z,24.30
2022-08-27T10:38:31.692Z,24.40
2022-08-27T10:41:04.110Z,24.30
2022-08-27T10:43:47.343Z,24.30
2022-08-27T10:46:34.188Z,24.30
2022-08-27T10:49:15.823Z,24.30
2022-08-27T10:51:53.699Z,24.30
2022-08-27T10:54:32.285Z,24.30
2022-08-27T10:57:28.631Z,24.40
2022-08-27T11:00:00.632Z,24.50
2022-08-27T11:02:36.060Z,24.50
2022-08-27T11:05:14.742Z,24.50
2022-08-27T11:07:47.443Z,24.60
2022-08-27T11:10:21.255Z,24.70
2022-08-27T11:12:52.730Z,24.70
2022-08-27T11:15:25.860Z,24.80
2022-08-27T11:18:00.658Z,24.80
2022-08-27T11:20:32.456Z,24.90
2022-08-27T11:23:05.683Z,25.00
2022-08-27T11:25:50.515Z,25.00
2022-08-27T11:28:19.903Z,25.10
2022-08-27T11:31:03.350Z,25.30
2022-08-27T11:33:45.391Z,25.30
2022-08-27T11:36:42.058Z,25.20
2022-08-27T11:39:24.636Z,25.20
2022-08-27T11:42:21.006Z,25.20
2022-08-27T11:44:54.751Z,25.20
2022-08-27T11:47:25.935Z,25.10
2022-08-27T11:49:57.489Z,25.10
2022-08-27T11:52:29.322Z,25.00
2022-08-27T11:55:12.651Z,25.10
2022-08-27T11:57:42.736Z,25.10
2022-08-27T12:00:20.016Z,25.10
2022-08-27T12:02:59.143Z,25.10
2022-08-27T12:05:36.437Z,25.10
2022-08-27T12:08:16.752Z,25.10
2022-08-27T12:11:03.839Z,25.10
2022-08-27T12:13:41.695Z,25.10
2022-08-27T12:16:23.469Z,25.10
2022-08-27T12:19:04.284Z,25.10
2022-08-27T12:21:46.685Z,25.20
2022-08-27T12:24:53.031Z,25.20
2022-08-27T12:27:38.212Z,25.20
2022-08-27T12:30:21.741Z,25.30
2022-08-27T12:32:52.536Z,25.20
2022-08-27T12:35:24.173Z,25.20
2022-08-27T12:37:57.061Z,25.10
2022-08-27T12:40:27.347Z,25.10
2022-08-27T12:43:07.248Z,25.10
2022-08-27T12:45:45.249Z,25.10
2022-08-27T12:48:13.298Z,25.10
2022-08-27T12:50:41.327Z,25.10
2022-08-27T12:53:23.114Z,25.10
2022-08-27T12:56:10.871Z,25.10
2022-08-27T12:58:50.891Z,25.10
2022-08-27T13:01:43.002Z,25.20
2022-08-27T13:04:23.559Z,25.20
2022-08-27T13:06:51.938Z,25.20
2022-08-27T13:09:27.857Z,25.10
2022-08-27T13:11:57.011Z,25.10
2022-08-27T13:14:26.811Z,25.20
2022-08-27T13:16:59.387Z,25.20
2022-08-27T13:19:30.493Z,25.30
2022-08-27T13:22:01.130Z,25.30
2022-08-27T13:24:32.500Z,25.40
2022-08-27T13:27:01.157Z,25.40
2022-08-27T13:29:29.927Z,25.50
2022-08-27T13:32:01.411Z,25.50
2022-08-27T13:34:34.575Z,25.50
2022-08-27T13:37:05.913Z,25.50
2022-08-27T13:39:35.399Z,25.60
2022-08-27T13:42:05.567Z,25.70
2022-08-27T13:44:35.716Z,25.80
2022-08-27T13:47:08.589Z,25.90
2022-08-27T13:49:40.274Z,26.00
2022-08-27T13:52:18.646Z,26.10
2022-08-27T13:54:47.472Z,26.30
2022-08-27T13:57:25.715Z,26.40
2022-08-27T13:59:53.804Z,26.40
2022-08-27T14:02:28.585Z,26.40
2022-08-27T14:05:11.390Z,26.40
2022-08-27T14:07:42.577Z,26.60
2022-08-27T14:10:26.888Z,26.70
2022-08-27T14:12:59.718Z,26.80
2022-08-27T14:15:34.505Z,27.00
2022-08-27T14:18:06.978Z,27.10
2022-08-27T14:20:36.840Z,27.20
2022-08-27T14:23:05.008Z,27.30
2022-08-27T14:25:34.461Z,27.50
2022-08-27T14:28:02.690Z,27.40
2022-08-27T14:30:31.349Z,27.40
2022-08-27T14:33:00.324Z,27.40
2022-08-27T14:35:31.362Z,27.30
2022-08-27T14:38:02.344Z,27.20
2022-08-27T14:40:31.361Z,27.20
2022-08-27T14:43:01.042Z,27.20
2022-08-27T14:45:29.045Z,27.10
2022-08-27T14:48:02.075Z,27.00
2022-08-27T14:50:31.930Z,26.90
2022-08-27T14:52:59.788Z,26.90
2022-08-27T14:55:27.837Z,26.90
2022-08-27T14:57:55.753Z,26.90
2022-08-27T15:00:23.605Z,26.90
2022-08-27T15:02:51.780Z,26.90
2022-08-27T15:05:24.758Z,26.90
2022-08-27T15:07:56.203Z,26.80
2022-08-27T15:10:26.839Z,26.80
2022-08-27T15:12:55.147Z,26.70
2022-08-27T15:15:23.355Z,26.60
2022-08-27T15:17:51.675Z,26.60
2022-08-27T15:20:20.394Z,26.50
2022-08-27T15:22:49.742Z,26.40
2022-08-27T15:25:20.088Z,26.30
2022-08-27T15:27:48.025Z,26.20
2022-08-27T15:30:19.321Z,26.10
2022-08-27T15:32:49.429Z,25.90
2022-08-27T15:35:19.288Z,25.80
2022-08-27T15:37:47.501Z,25.70
2022-08-27T15:40:18.862Z,25.70
2022-08-27T15:42:59.182Z,25.60
2022-08-27T15:45:27.905Z,25.50
2022-08-27T15:47:56.027Z,25.50
2022-08-27T15:50:24.976Z,25.60
2022-08-27T15:52:58.070Z,25.70
2022-08-27T15:55:29.947Z,25.90
2022-08-27T15:57:58.452Z,26.00
2022-08-27T16:00:27.044Z,26.00
2022-08-27T16:02:55.287Z,26.00
2022-08-27T16:05:23.639Z,26.00
2022-08-27T16:07:51.616Z,26.00
2022-08-27T16:10:19.923Z,25.90
2022-08-27T16:12:49.257Z,25.80
2022-08-27T16:15:17.428Z,25.80
2022-08-27T16:17:46.126Z,25.80
2022-08-27T16:20:16.670Z,25.80
2022-08-27T16:22:45.928Z,25.80
2022-08-27T16:25:18.531Z,25.80
2022-08-27T16:27:50.046Z,25.80
2022-08-27T16:30:18.545Z,25.80
2022-08-27T16:32:49.127Z,25.70
2022-08-27T16:35:17.398Z,25.60
2022-08-27T16:37:45.620Z,25.60
2022-08-27T16:40:14.907Z,25.50
2022-08-27T16:42:46.787Z,25.40
2022-08-27T16:45:17.270Z,25.30
2022-08-27T16:48:03.103Z,25.10
2022-08-27T16:50:37.043Z,25.00
2022-08-27T16:53:07.691Z,25.00
2022-08-27T16:55:37.513Z,24.90
2022-08-27T16:58:07.057Z,24.70
2022-08-27T17:00:38.542Z,24.70
2022-08-27T17:03:07.677Z,24.60
2022-08-27T17:05:36.187Z,24.50
2022-08-27T17:08:05.475Z,24.50
2022-08-27T17:10:36.408Z,24.40
2022-08-27T17:13:04.775Z,24.40
2022-08-27T17:15:32.829Z,24.30
2022-08-27T17:18:02.859Z,24.30
2022-08-27T17:20:31.686Z,24.30
2022-08-27T17:23:00.187Z,24.30
2022-08-27T17:25:29.926Z,24.20
2022-08-27T17:28:00.382Z,24.20
2022-08-27T17:30:29.012Z,24.20
2022-08-27T17:32:57.988Z,24.20
2022-08-27T17:35:27.336Z,24.20
2022-08-27T17:37:55.623Z,24.20
2022-08-27T17:40:24.138Z,24.10
2022-08-27T17:42:52.167Z,24.10
2022-08-27T17:45:20.260Z,24.10
2022-08-27T17:47:48.184Z,24.00
2022-08-27T17:50:16.289Z,23.90
2022-08-27T17:52:47.652Z,23.90
2022-08-27T17:55:15.634Z,23.80
2022-08-27T17:57:43.558Z,23.70
2022-08-27T18:00:14.364Z,23.70
2022-08-27T18:02:45.389Z,23.60
2022-08-27T18:05:14.507Z,23.60
2022-08-27T18:07:43.838Z,23.50
2022-08-27T18:10:15.502Z,23.40
2022-08-27T18:12:44.837Z,23.30
2022-08-27T18:15:18.588Z,23.20
2022-08-27T18:17:48.890Z,23.20
2022-08-27T18:20:22.748Z,23.10
2022-08-27T18:22:51.253Z,23.00
2022-08-27T18:25:24.462Z,23.00
2022-08-27T18:27:55.813Z,22.90
2022-08-27T18:30:24.874Z,22.80
2022-08-27T18:32:53.234Z,22.70
2022-08-27T18:35:23.944Z,22.70
2022-08-27T18:37:52.533Z,22.60
2022-08-27T18:40:24.539Z,22.60
2022-08-27T18:42:52.903Z,22.50
2022-08-27T18:45:26.204Z,22.50
2022-08-27T18:48:02.635Z,22.40
2022-08-27T18:50:30.616Z,22.40
2022-08-27T18:52:58.814Z,22.30
2022-08-27T18:55:29.099Z,22.30
2022-08-27T18:57:59.441Z,22.30
2022-08-27T19:00:27.404Z,22.30
2022-08-27T19:02:55.497Z,22.20
2022-08-27T19:05:27.199Z,22.10
2022-08-27T19:07:55.821Z,22.10
2022-08-27T19:10:24.269Z,22.00
2022-08-27T19:12:53.860Z,21.90
2022-08-27T19:15:21.979Z,21.90
2022-08-27T19:17:54.142Z,21.90
2022-08-27T19:20:22.254Z,21.80
2022-08-27T19:22:50.575Z,21.80
2022-08-27T19:25:18.994Z,21.70
2022-08-27T19:27:48.118Z,21.60
2022-08-27T19:30:18.317Z,21.60
2022-08-27T19:32:46.777Z,21.60
2022-08-27T19:35:15.200Z,21.50
2022-08-27T19:37:52.903Z,21.50
2022-08-27T19:40:22.203Z,21.40
2022-08-27T19:42:50.892Z,21.40
2022-08-27T19:45:23.021Z,21.40
2022-08-27T19:47:52.313Z,21.40
2022-08-27T19:50:21.388Z,21.30
2022-08-27T19:52:49.300Z,21.30
2022-08-27T19:55:17.739Z,21.30
2022-08-27T19:57:46.177Z,21.30
2022-08-27T20:00:17.569Z,21.30
2022-08-27T20:02:47.124Z,21.20
2022-08-27T20:05:19.971Z,21.20
2022-08-27T20:07:48.456Z,21.20
2022-08-27T20:10:16.723Z,21.20
2022-08-27T20:12:44.869Z,21.20
2022-08-27T20:15:13.789Z,21.10
2022-08-27T20:17:43.756Z,21.10
2022-08-27T20:20:15.524Z,21.00
2022-08-27T20:22:44.113Z,21.00
2022-08-27T20:25:13.243Z,20.90
2022-08-27T20:27:42.360Z,20.90
2022-08-27T20:30:13.493Z,20.90
2022-08-27T20:32:42.020Z,20.80
2022-08-27T20:35:11.623Z,20.80
2022-08-27T20:37:42.603Z,20.80
2022-08-27T20:40:14.281Z,20.80
2022-08-27T20:42:42.424Z,20.80
2022-08-27T20:45:12.357Z,20.80
2022-08-27T20:47:40.823Z,20.80
2022-08-27T20:50:11.852Z,20.80
2022-08-27T20:52:42.240Z,20.80
2022-08-27T20:55:12.125Z,20.80
2022-08-27T20:58:05.851Z,20.80
2022-08-27T21:00:35.074Z,20.80
2022-08-27T21:03:03.073Z,20.70
2022-08-27T21:05:33.880Z,20.70
2022-08-27T21:08:04.686Z,20.70
2022-08-27T21:10:33.526Z,20.70
2022-08-27T21:13:04.712Z,20.70
2022-08-27T21:15:33.393Z,20.60
2022-08-27T21:18:01.378Z,20.60
2022-08-27T21:20:29.695Z,20.60
2022-08-27T21:22:59.059Z,20.60
2022-08-27T21:25:28.856Z,20.60
2022-08-27T21:27:58.110Z,20.60
2022-08-27T21:30:28.098Z,20.50
2022-08-27T21:32:56.677Z,20.50
2022-08-27T21:35:26.712Z,20.50
2022-08-27T21:37:54.889Z,20.50
2022-08-27T21:40:24.525Z,20.50
2022-08-27T21:42:54.357Z,20.50
2022-08-27T21:45:22.868Z,20.50
2022-08-27T21:47:51.802Z,20.40
2022-08-27T21:50:20.504Z,20.40
2022-08-27T21:52:48.431Z,20.40
2022-08-27T21:55:16.700Z,20.40
2022-08-27T21:57:44.670Z,20.40
2022-08-27T22:00:37.643Z,20.50
2022-08-27T22:03:10.442Z,20.50
2022-08-27T22:05:40.996Z,20.50
2022-08-27T22:08:09.555Z,20.50
2022-08-27T22:10:38.851Z,20.50
2022-08-27T22:13:07.329Z,20.50
2022-08-27T22:15:37.026Z,20.50
2022-08-27T22:18:05.429Z,20.60
2022-08-27T22:20:34.133Z,20.60
2022-08-27T22:23:02.104Z,20.60
2022-08-27T22:25:30.533Z,20.60
2022-08-27T22:27:58.532Z,20.70
2022-08-27T22:30:26.484Z,20.70
2022-08-27T22:32:55.966Z,20.70
2022-08-27T22:35:24.351Z,20.80
2022-08-27T22:37:55.696Z,20.80
2022-08-27T22:40:26.748Z,20.80
2022-08-27T22:42:56.957Z,20.80
2022-08-27T22:45:25.805Z,20.80
2022-08-27T22:47:55.233Z,20.80
2022-08-27T22:50:24.437Z,20.80
2022-08-27T22:52:52.702Z,20.80
2022-08-27T22:55:23.379Z,20.80
2022-08-27T22:57:53.503Z,20.80
2022-08-27T23:00:25.413Z,20.80
2022-08-27T23:02:55.247Z,20.80
2022-08-27T23:05:24.169Z,20.80
2022-08-27T23:07:53.029Z,20.70
2022-08-27T23:10:24.927Z,20.70
2022-08-27T23:12:54.128Z,20.70
2022-08-27T23:15:25.068Z,20.70
2022-08-27T23:17:53.031Z,20.70
2022-08-27T23:20:22.732Z,20.70
2022-08-27T23:22:51.695Z,20.70
2022-08-27T23:25:37.688Z,20.70
2022-08-27T23:28:13.520Z,20.70
2022-08-27T23:30:42.627Z,20.70
2022-08-27T23:33:10.654Z,20.70
2022-08-27T23:35:41.196Z,20.70
2022-08-27T23:38:09.311Z,20.60
2022-08-27T23:40:37.336Z,20.70
2022-08-27T23:43:05.728Z,20.60
2022-08-27T23:45:37.118Z,20.60
2022-08-27T23:48:08.544Z,20.60
2022-08-27T23:50:36.683Z,20.60
2022-08-27T23:53:07.434Z,20.60
2022-08-27T23:55:36.237Z,20.60
2022-08-27T23:58:06.769Z,20.60
